sensor_id;sensor_type;location;lat;lon;timestamp;temperature;humidity
6486;DHT22;3276;48.490;9.222;2023-04-25T00:00:52;7.80;20.60
6486;DHT22;3276;48.490;9.222;2023-04-25T00:03:18;7.80;21.20
6486;DHT22;3276;48.490;9.222;2023-04-25T00:05:43;7.80;21.00
6486;DHT22;3276;48.490;9.222;2023-04-25T00:08:10;7.80;20.50
6486;DHT22;3276;48.490;9.222;2023-04-25T00:10:36;7.80;20.80
6486;DHT22;3276;48.490;9.222;2023-04-25T00:13:02;7.90;20.90
6486;DHT22;3276;48.490;9.222;2023-04-25T00:15:28;7.90;20.70
6486;DHT22;3276;48.490;9.222;2023-04-25T00:17:57;7.90;20.90
6486;DHT22;3276;48.490;9.222;2023-04-25T00:20:22;7.90;21.10
6486;DHT22;3276;48.490;9.222;2023-04-25T00:22:49;8.00;21.10
6486;DHT22;3276;48.490;9.222;2023-04-25T00:25:14;8.10;20.80
6486;DHT22;3276;48.490;9.222;2023-04-25T00:27:40;8.10;20.70
6486;DHT22;3276;48.490;9.222;2023-04-25T00:30:07;8.10;20.20
6486;DHT22;3276;48.490;9.222;2023-04-25T00:32:33;8.20;20.00
6486;DHT22;3276;48.490;9.222;2023-04-25T00:34:59;8.20;19.70
6486;DHT22;3276;48.490;9.222;2023-04-25T00:37:24;8.20;19.60
6486;DHT22;3276;48.490;9.222;2023-04-25T00:39:50;8.30;18.70
6486;DHT22;3276;48.490;9.222;2023-04-25T00:42:16;8.30;19.00
6486;DHT22;3276;48.490;9.222;2023-04-25T00:44:43;8.20;18.50
6486;DHT22;3276;48.490;9.222;2023-04-25T00:47:08;8.20;18.00
6486;DHT22;3276;48.490;9.222;2023-04-25T00:49:36;8.20;18.50
6486;DHT22;3276;48.490;9.222;2023-04-25T00:52:01;8.20;18.80
6486;DHT22;3276;48.490;9.222;2023-04-25T00:54:27;8.20;18.80
6486;DHT22;3276;48.490;9.222;2023-04-25T00:56:52;8.30;18.80
6486;DHT22;3276;48.490;9.222;2023-04-25T00:59:19;8.30;18.40
6486;DHT22;3276;48.490;9.222;2023-04-25T01:01:45;8.30;18.00
6486;DHT22;3276;48.490;9.222;2023-04-25T01:04:11;8.30;18.00
6486;DHT22;3276;48.490;9.222;2023-04-25T01:06:36;8.30;18.00
6486;DHT22;3276;48.490;9.222;2023-04-25T01:09:02;8.30;18.00
6486;DHT22;3276;48.490;9.222;2023-04-25T01:11:29;8.30;18.00
6486;DHT22;3276;48.490;9.222;2023-04-25T01:13:55;8.30;18.00
6486;DHT22;3276;48.490;9.222;2023-04-25T01:16:20;8.30;18.00
6486;DHT22;3276;48.490;9.222;2023-04-25T01:18:46;8.30;18.00
6486;DHT22;3276;48.490;9.222;2023-04-25T01:21:13;8.20;18.00
6486;DHT22;3276;48.490;9.222;2023-04-25T01:23:39;8.20;18.20
6486;DHT22;3276;48.490;9.222;2023-04-25T01:26:06;8.10;18.40
6486;DHT22;3276;48.490;9.222;2023-04-25T01:28:33;8.20;18.00
6486;DHT22;3276;48.490;9.222;2023-04-25T01:30:59;8.30;18.00
6486;DHT22;3276;48.490;9.222;2023-04-25T01:33:24;8.40;18.10
6486;DHT22;3276;48.490;9.222;2023-04-25T01:35:50;8.40;18.10
6486;DHT22;3276;48.490;9.222;2023-04-25T01:38:16;8.40;18.10
6486;DHT22;3276;48.490;9.222;2023-04-25T01:40:41;8.40;18.10
6486;DHT22;3276;48.490;9.222;2023-04-25T01:43:10;8.30;18.00
6486;DHT22;3276;48.490;9.222;2023-04-25T01:45:38;8.20;18.70
6486;DHT22;3276;48.490;9.222;2023-04-25T01:48:07;8.20;18.70
6486;DHT22;3276;48.490;9.222;2023-04-25T01:50:32;8.30;18.50
6486;DHT22;3276;48.490;9.222;2023-04-25T01:52:58;8.30;18.50
6486;DHT22;3276;48.490;9.222;2023-04-25T01:55:24;8.20;18.50
6486;DHT22;3276;48.490;9.222;2023-04-25T01:57:49;8.20;18.70
6486;DHT22;3276;48.490;9.222;2023-04-25T02:00:15;8.10;19.50
6486;DHT22;3276;48.490;9.222;2023-04-25T02:02:41;8.20;18.70
6486;DHT22;3276;48.490;9.222;2023-04-25T02:05:07;8.30;18.10
6486;DHT22;3276;48.490;9.222;2023-04-25T02:07:32;8.30;19.20
6486;DHT22;3276;48.490;9.222;2023-04-25T02:09:58;8.30;18.70
6486;DHT22;3276;48.490;9.222;2023-04-25T02:12:23;8.30;18.00
6486;DHT22;3276;48.490;9.222;2023-04-25T02:14:51;8.30;18.30
6486;DHT22;3276;48.490;9.222;2023-04-25T02:17:17;8.30;18.60
6486;DHT22;3276;48.490;9.222;2023-04-25T02:19:43;8.30;19.00
6486;DHT22;3276;48.490;9.222;2023-04-25T02:22:08;8.20;19.20
6486;DHT22;3276;48.490;9.222;2023-04-25T02:24:34;8.10;19.50
6486;DHT22;3276;48.490;9.222;2023-04-25T02:27:00;8.10;19.70
6486;DHT22;3276;48.490;9.222;2023-04-25T02:29:26;8.20;19.40
6486;DHT22;3276;48.490;9.222;2023-04-25T02:31:51;8.20;19.60
6486;DHT22;3276;48.490;9.222;2023-04-25T02:34:17;8.00;19.30
6486;DHT22;3276;48.490;9.222;2023-04-25T02:36:42;8.10;19.00
6486;DHT22;3276;48.490;9.222;2023-04-25T02:39:08;8.10;19.70
6486;DHT22;3276;48.490;9.222;2023-04-25T02:41:33;8.10;19.40
6486;DHT22;3276;48.490;9.222;2023-04-25T02:43:59;8.10;19.60
6486;DHT22;3276;48.490;9.222;2023-04-25T02:46:24;8.10;19.70
6486;DHT22;3276;48.490;9.222;2023-04-25T02:48:50;8.00;19.40
6486;DHT22;3276;48.490;9.222;2023-04-25T02:51:15;7.80;20.10
6486;DHT22;3276;48.490;9.222;2023-04-25T02:53:41;7.80;20.60
6486;DHT22;3276;48.490;9.222;2023-04-25T02:56:07;7.90;20.50
6486;DHT22;3276;48.490;9.222;2023-04-25T02:58:33;7.90;20.40
6486;DHT22;3276;48.490;9.222;2023-04-25T03:00:58;8.00;20.10
6486;DHT22;3276;48.490;9.222;2023-04-25T03:03:24;7.90;20.40
6486;DHT22;3276;48.490;9.222;2023-04-25T03:05:50;7.80;20.20
6486;DHT22;3276;48.490;9.222;2023-04-25T03:08:17;7.70;21.90
6486;DHT22;3276;48.490;9.222;2023-04-25T03:10:43;7.60;21.80
6486;DHT22;3276;48.490;9.222;2023-04-25T03:13:09;7.50;22.00
6486;DHT22;3276;48.490;9.222;2023-04-25T03:15:35;7.50;21.70
6486;DHT22;3276;48.490;9.222;2023-04-25T03:18:01;7.40;22.00
6486;DHT22;3276;48.490;9.222;2023-04-25T03:20:26;7.40;21.70
6486;DHT22;3276;48.490;9.222;2023-04-25T03:22:52;7.40;21.80
6486;DHT22;3276;48.490;9.222;2023-04-25T03:25:17;7.40;22.50
6486;DHT22;3276;48.490;9.222;2023-04-25T03:27:43;7.30;23.50
6486;DHT22;3276;48.490;9.222;2023-04-25T03:30:09;7.30;24.00
6486;DHT22;3276;48.490;9.222;2023-04-25T03:32:34;7.30;24.40
6486;DHT22;3276;48.490;9.222;2023-04-25T03:35:00;7.30;24.60
6486;DHT22;3276;48.490;9.222;2023-04-25T03:37:26;7.40;25.00
6486;DHT22;3276;48.490;9.222;2023-04-25T03:39:51;7.40;24.50
6486;DHT22;3276;48.490;9.222;2023-04-25T03:42:17;7.50;24.20
6486;DHT22;3276;48.490;9.222;2023-04-25T03:44:43;7.50;24.20
6486;DHT22;3276;48.490;9.222;2023-04-25T03:47:08;7.60;23.60
6486;DHT22;3276;48.490;9.222;2023-04-25T03:49:34;7.70;23.30
6486;DHT22;3276;48.490;9.222;2023-04-25T03:52:01;7.70;23.40
6486;DHT22;3276;48.490;9.222;2023-04-25T03:54:26;7.70;22.70
6486;DHT22;3276;48.490;9.222;2023-04-25T03:56:52;7.70;22.50
6486;DHT22;3276;48.490;9.222;2023-04-25T03:59:17;7.70;22.50
6486;DHT22;3276;48.490;9.222;2023-04-25T04:01:43;7.70;23.00
6486;DHT22;3276;48.490;9.222;2023-04-25T04:04:08;7.70;23.40
6486;DHT22;3276;48.490;9.222;2023-04-25T04:06:34;7.70;23.20
6486;DHT22;3276;48.490;9.222;2023-04-25T04:09:00;7.70;23.20
6486;DHT22;3276;48.490;9.222;2023-04-25T04:11:25;7.70;23.40
6486;DHT22;3276;48.490;9.222;2023-04-25T04:13:51;7.70;23.10
6486;DHT22;3276;48.490;9.222;2023-04-25T04:16:16;7.70;22.40
6486;DHT22;3276;48.490;9.222;2023-04-25T04:18:42;7.60;22.80
6486;DHT22;3276;48.490;9.222;2023-04-25T04:21:07;7.70;23.10
6486;DHT22;3276;48.490;9.222;2023-04-25T04:23:33;7.60;22.80
6486;DHT22;3276;48.490;9.222;2023-04-25T04:25:58;7.60;23.10
6486;DHT22;3276;48.490;9.222;2023-04-25T04:28:25;7.60;23.40
6486;DHT22;3276;48.490;9.222;2023-04-25T04:30:51;7.60;22.90
6486;DHT22;3276;48.490;9.222;2023-04-25T04:33:17;7.60;23.20
6486;DHT22;3276;48.490;9.222;2023-04-25T04:35:46;7.60;23.40
6486;DHT22;3276;48.490;9.222;2023-04-25T04:38:12;7.60;23.10
6486;DHT22;3276;48.490;9.222;2023-04-25T04:40:40;7.70;22.60
6486;DHT22;3276;48.490;9.222;2023-04-25T04:43:07;7.70;22.10
6486;DHT22;3276;48.490;9.222;2023-04-25T04:45:34;7.70;22.70
6486;DHT22;3276;48.490;9.222;2023-04-25T04:47:59;7.70;21.90
6486;DHT22;3276;48.490;9.222;2023-04-25T04:50:25;7.80;22.10
6486;DHT22;3276;48.490;9.222;2023-04-25T04:52:51;7.90;22.00
6486;DHT22;3276;48.490;9.222;2023-04-25T04:55:17;7.90;22.00
6486;DHT22;3276;48.490;9.222;2023-04-25T04:57:43;8.00;21.50
6486;DHT22;3276;48.490;9.222;2023-04-25T05:00:11;8.00;20.20
6486;DHT22;3276;48.490;9.222;2023-04-25T05:02:38;7.90;20.70
6486;DHT22;3276;48.490;9.222;2023-04-25T05:05:04;8.00;20.40
6486;DHT22;3276;48.490;9.222;2023-04-25T05:07:30;8.00;20.30
6486;DHT22;3276;48.490;9.222;2023-04-25T05:09:56;8.00;20.30
6486;DHT22;3276;48.490;9.222;2023-04-25T05:12:21;8.10;20.10
6486;DHT22;3276;48.490;9.222;2023-04-25T05:14:47;8.20;20.00
6486;DHT22;3276;48.490;9.222;2023-04-25T05:17:12;8.10;19.40
6486;DHT22;3276;48.490;9.222;2023-04-25T05:19:38;8.10;19.30
6486;DHT22;3276;48.490;9.222;2023-04-25T05:22:04;8.30;19.00
6486;DHT22;3276;48.490;9.222;2023-04-25T05:24:30;8.30;18.70
6486;DHT22;3276;48.490;9.222;2023-04-25T05:26:56;8.30;18.40
6486;DHT22;3276;48.490;9.222;2023-04-25T05:29:21;8.40;17.70
6486;DHT22;3276;48.490;9.222;2023-04-25T05:31:47;8.50;18.10
6486;DHT22;3276;48.490;9.222;2023-04-25T05:34:13;8.40;18.10
6486;DHT22;3276;48.490;9.222;2023-04-25T05:36:39;8.40;18.90
6486;DHT22;3276;48.490;9.222;2023-04-25T05:39:04;8.50;19.40
6486;DHT22;3276;48.490;9.222;2023-04-25T05:41:31;8.50;19.40
6486;DHT22;3276;48.490;9.222;2023-04-25T05:43:57;8.70;19.30
6486;DHT22;3276;48.490;9.222;2023-04-25T05:46:22;8.70;17.10
6486;DHT22;3276;48.490;9.222;2023-04-25T05:48:48;8.70;18.20
6486;DHT22;3276;48.490;9.222;2023-04-25T05:51:13;8.80;18.00
6486;DHT22;3276;48.490;9.222;2023-04-25T05:53:39;9.20;16.80
6486;DHT22;3276;48.490;9.222;2023-04-25T05:56:04;9.50;15.30
6486;DHT22;3276;48.490;9.222;2023-04-25T05:58:30;9.90;14.70
6486;DHT22;3276;48.490;9.222;2023-04-25T06:00:56;10.10;12.40
6486;DHT22;3276;48.490;9.222;2023-04-25T06:03:21;10.40;11.80
6486;DHT22;3276;48.490;9.222;2023-04-25T06:05:47;10.50;11.40
6486;DHT22;3276;48.490;9.222;2023-04-25T06:08:13;10.80;10.20
6486;DHT22;3276;48.490;9.222;2023-04-25T06:10:39;11.10;10.00
6486;DHT22;3276;48.490;9.222;2023-04-25T06:13:05;11.00;9.70
6486;DHT22;3276;48.490;9.222;2023-04-25T06:15:30;11.00;8.70
6486;DHT22;3276;48.490;9.222;2023-04-25T06:17:59;11.00;9.30
6486;DHT22;3276;48.490;9.222;2023-04-25T06:20:24;11.00;9.40
6486;DHT22;3276;48.490;9.222;2023-04-25T06:22:50;10.70;9.60
6486;DHT22;3276;48.490;9.222;2023-04-25T06:25:17;10.30;9.90
6486;DHT22;3276;48.490;9.222;2023-04-25T06:27:42;10.20;10.50
6486;DHT22;3276;48.490;9.222;2023-04-25T06:30:08;10.00;11.10
6486;DHT22;3276;48.490;9.222;2023-04-25T06:32:35;10.00;11.80
6486;DHT22;3276;48.490;9.222;2023-04-25T06:35:00;9.70;12.70
6486;DHT22;3276;48.490;9.222;2023-04-25T06:37:26;9.60;13.90
6486;DHT22;3276;48.490;9.222;2023-04-25T06:39:52;9.40;14.40
6486;DHT22;3276;48.490;9.222;2023-04-25T06:42:17;9.50;13.50
6486;DHT22;3276;48.490;9.222;2023-04-25T06:44:43;9.50;13.90
6486;DHT22;3276;48.490;9.222;2023-04-25T06:47:09;9.60;12.90
6486;DHT22;3276;48.490;9.222;2023-04-25T06:49:34;9.60;12.90
6486;DHT22;3276;48.490;9.222;2023-04-25T06:52:00;9.60;13.50
6486;DHT22;3276;48.490;9.222;2023-04-25T06:54:25;9.60;12.70
6486;DHT22;3276;48.490;9.222;2023-04-25T06:56:53;9.50;12.20
6486;DHT22;3276;48.490;9.222;2023-04-25T06:59:18;9.50;11.90
6486;DHT22;3276;48.490;9.222;2023-04-25T07:01:44;9.40;12.50
6486;DHT22;3276;48.490;9.222;2023-04-25T07:04:10;9.40;12.70
6486;DHT22;3276;48.490;9.222;2023-04-25T07:06:35;9.40;12.90
6486;DHT22;3276;48.490;9.222;2023-04-25T07:09:03;9.30;12.20
6486;DHT22;3276;48.490;9.222;2023-04-25T07:11:30;9.40;12.70
6486;DHT22;3276;48.490;9.222;2023-04-25T07:13:55;9.50;13.30
6486;DHT22;3276;48.490;9.222;2023-04-25T07:16:21;9.60;13.30
6486;DHT22;3276;48.490;9.222;2023-04-25T07:18:46;9.60;13.00
6486;DHT22;3276;48.490;9.222;2023-04-25T07:21:12;9.80;13.40
6486;DHT22;3276;48.490;9.222;2023-04-25T07:23:37;9.80;13.40
6486;DHT22;3276;48.490;9.222;2023-04-25T07:26:06;9.60;14.10
6486;DHT22;3276;48.490;9.222;2023-04-25T07:28:31;9.40;14.10
6486;DHT22;3276;48.490;9.222;2023-04-25T07:30:57;9.50;15.10
6486;DHT22;3276;48.490;9.222;2023-04-25T07:33:23;9.60;15.10
6486;DHT22;3276;48.490;9.222;2023-04-25T07:35:49;9.50;16.60
6486;DHT22;3276;48.490;9.222;2023-04-25T07:38:15;9.40;16.40
6486;DHT22;3276;48.490;9.222;2023-04-25T07:40:41;9.20;17.40
6486;DHT22;3276;48.490;9.222;2023-04-25T07:43:06;9.30;18.00
6486;DHT22;3276;48.490;9.222;2023-04-25T07:45:32;9.40;18.30
6486;DHT22;3276;48.490;9.222;2023-04-25T07:47:57;9.60;18.70
6486;DHT22;3276;48.490;9.222;2023-04-25T07:50:23;9.70;18.60
6486;DHT22;3276;48.490;9.222;2023-04-25T07:52:49;9.80;18.10
6486;DHT22;3276;48.490;9.222;2023-04-25T07:55:14;9.70;17.70
6486;DHT22;3276;48.490;9.222;2023-04-25T07:57:40;9.70;18.30
6486;DHT22;3276;48.490;9.222;2023-04-25T08:00:06;9.70;19.50
6486;DHT22;3276;48.490;9.222;2023-04-25T08:02:35;9.70;19.00
6486;DHT22;3276;48.490;9.222;2023-04-25T08:05:00;9.70;18.30
6486;DHT22;3276;48.490;9.222;2023-04-25T08:07:26;9.70;18.90
6486;DHT22;3276;48.490;9.222;2023-04-25T08:09:52;9.70;17.20
6486;DHT22;3276;48.490;9.222;2023-04-25T08:12:17;9.60;18.40
6486;DHT22;3276;48.490;9.222;2023-04-25T08:14:43;9.60;20.30
6486;DHT22;3276;48.490;9.222;2023-04-25T08:17:09;9.70;20.20
6486;DHT22;3276;48.490;9.222;2023-04-25T08:19:35;9.70;18.90
6486;DHT22;3276;48.490;9.222;2023-04-25T08:22:00;9.60;19.40
6486;DHT22;3276;48.490;9.222;2023-04-25T08:24:26;9.50;20.00
6486;DHT22;3276;48.490;9.222;2023-04-25T08:26:51;9.40;20.70
6486;DHT22;3276;48.490;9.222;2023-04-25T08:29:17;9.20;22.20
6486;DHT22;3276;48.490;9.222;2023-04-25T08:31:43;9.10;23.90
6486;DHT22;3276;48.490;9.222;2023-04-25T08:34:08;9.10;23.30
6486;DHT22;3276;48.490;9.222;2023-04-25T08:36:35;9.20;23.20
6486;DHT22;3276;48.490;9.222;2023-04-25T08:39:00;9.20;23.00
6486;DHT22;3276;48.490;9.222;2023-04-25T08:41:26;9.10;22.80
6486;DHT22;3276;48.490;9.222;2023-04-25T08:43:53;8.90;23.40
6486;DHT22;3276;48.490;9.222;2023-04-25T08:46:21;8.90;23.60
6486;DHT22;3276;48.490;9.222;2023-04-25T08:48:48;8.80;24.70
6486;DHT22;3276;48.490;9.222;2023-04-25T08:51:23;8.50;25.50
6486;DHT22;3276;48.490;9.222;2023-04-25T08:53:51;8.40;27.30
6486;DHT22;3276;48.490;9.222;2023-04-25T08:56:17;8.20;26.90
6486;DHT22;3276;48.490;9.222;2023-04-25T08:58:44;8.10;27.10
6486;DHT22;3276;48.490;9.222;2023-04-25T09:01:11;8.20;27.90
6486;DHT22;3276;48.490;9.222;2023-04-25T09:03:36;8.20;26.80
6486;DHT22;3276;48.490;9.222;2023-04-25T09:06:03;8.10;26.30
6486;DHT22;3276;48.490;9.222;2023-04-25T09:08:29;8.00;26.10
6486;DHT22;3276;48.490;9.222;2023-04-25T09:10:55;8.00;26.60
6486;DHT22;3276;48.490;9.222;2023-04-25T09:13:26;7.80;26.10
6486;DHT22;3276;48.490;9.222;2023-04-25T09:15:56;7.90;27.40
6486;DHT22;3276;48.490;9.222;2023-04-25T09:18:29;8.00;26.60
6486;DHT22;3276;48.490;9.222;2023-04-25T09:20:56;8.00;27.10
6486;DHT22;3276;48.490;9.222;2023-04-25T09:23:23;8.10;27.50
6486;DHT22;3276;48.490;9.222;2023-04-25T09:25:52;8.10;29.50
6486;DHT22;3276;48.490;9.222;2023-04-25T09:28:26;8.10;26.30
6486;DHT22;3276;48.490;9.222;2023-04-25T09:30:55;8.10;26.90
6486;DHT22;3276;48.490;9.222;2023-04-25T09:33:33;8.40;26.80
6486;DHT22;3276;48.490;9.222;2023-04-25T09:36:06;8.30;26.40
6486;DHT22;3276;48.490;9.222;2023-04-25T09:38:42;8.20;26.40
6486;DHT22;3276;48.490;9.222;2023-04-25T09:41:09;8.30;26.40
6486;DHT22;3276;48.490;9.222;2023-04-25T09:43:35;8.00;28.70
6486;DHT22;3276;48.490;9.222;2023-04-25T09:46:01;7.80;28.10
6486;DHT22;3276;48.490;9.222;2023-04-25T09:48:28;7.50;27.20
6486;DHT22;3276;48.490;9.222;2023-04-25T09:53:29;7.30;27.60
6486;DHT22;3276;48.490;9.222;2023-04-25T09:55:55;7.30;29.80
6486;DHT22;3276;48.490;9.222;2023-04-25T09:58:24;7.40;28.10
6486;DHT22;3276;48.490;9.222;2023-04-25T10:00:51;7.30;29.80
6486;DHT22;3276;48.490;9.222;2023-04-25T10:03:17;7.20;30.20
6486;DHT22;3276;48.490;9.222;2023-04-25T10:05:43;7.40;31.40
6486;DHT22;3276;48.490;9.222;2023-04-25T10:08:10;7.40;28.50
6486;DHT22;3276;48.490;9.222;2023-04-25T10:10:37;7.70;28.80
6486;DHT22;3276;48.490;9.222;2023-04-25T10:13:05;7.70;27.30
6486;DHT22;3276;48.490;9.222;2023-04-25T10:15:34;7.40;26.80
6486;DHT22;3276;48.490;9.222;2023-04-25T10:18:00;7.30;27.90
6486;DHT22;3276;48.490;9.222;2023-04-25T10:20:26;7.20;29.30
6486;DHT22;3276;48.490;9.222;2023-04-25T10:22:54;7.30;28.70
6486;DHT22;3276;48.490;9.222;2023-04-25T10:25:22;7.30;30.30
6486;DHT22;3276;48.490;9.222;2023-04-25T10:27:51;7.20;28.70
6486;DHT22;3276;48.490;9.222;2023-04-25T10:30:18;6.90;28.80
6486;DHT22;3276;48.490;9.222;2023-04-25T10:32:44;6.70;32.70
6486;DHT22;3276;48.490;9.222;2023-04-25T10:35:29;6.70;33.90
6486;DHT22;3276;48.490;9.222;2023-04-25T10:38:09;6.40;33.20
6486;DHT22;3276;48.490;9.222;2023-04-25T10:40:35;6.50;32.10
6486;DHT22;3276;48.490;9.222;2023-04-25T10:46:25;6.50;31.40
6486;DHT22;3276;48.490;9.222;2023-04-25T10:48:59;6.60;29.40
6486;DHT22;3276;48.490;9.222;2023-04-25T10:56:42;6.70;27.40
6486;DHT22;3276;48.490;9.222;2023-04-25T10:59:08;7.00;26.40
6486;DHT22;3276;48.490;9.222;2023-04-25T11:01:45;7.10;27.30
6486;DHT22;3276;48.490;9.222;2023-04-25T11:04:26;7.50;27.40
6486;DHT22;3276;48.490;9.222;2023-04-25T11:07:02;7.70;25.10
6486;DHT22;3276;48.490;9.222;2023-04-25T11:09:30;7.90;25.40
6486;DHT22;3276;48.490;9.222;2023-04-25T11:11:58;7.30;23.30
6486;DHT22;3276;48.490;9.222;2023-04-25T11:14:24;7.70;23.60
6486;DHT22;3276;48.490;9.222;2023-04-25T11:16:57;7.90;23.40
6486;DHT22;3276;48.490;9.222;2023-04-25T11:19:24;8.20;21.80
6486;DHT22;3276;48.490;9.222;2023-04-25T11:21:50;8.30;21.80
6486;DHT22;3276;48.490;9.222;2023-04-25T11:24:16;8.40;20.10
6486;DHT22;3276;48.490;9.222;2023-04-25T11:26:43;8.60;20.70
6486;DHT22;3276;48.490;9.222;2023-04-25T11:29:09;8.50;20.70
6486;DHT22;3276;48.490;9.222;2023-04-25T11:31:34;8.20;20.60
6486;DHT22;3276;48.490;9.222;2023-04-25T11:34:00;8.20;20.60
6486;DHT22;3276;48.490;9.222;2023-04-25T11:36:26;8.20;22.20
6486;DHT22;3276;48.490;9.222;2023-04-25T11:38:52;8.50;19.10
6486;DHT22;3276;48.490;9.222;2023-04-25T11:41:21;8.30;18.90
6486;DHT22;3276;48.490;9.222;2023-04-25T11:43:47;8.00;21.70
6486;DHT22;3276;48.490;9.222;2023-04-25T11:46:14;8.20;21.30
6486;DHT22;3276;48.490;9.222;2023-04-25T11:48:41;8.60;20.10
6486;DHT22;3276;48.490;9.222;2023-04-25T11:51:07;8.70;20.50
6486;DHT22;3276;48.490;9.222;2023-04-25T11:53:33;8.90;18.90
6486;DHT22;3276;48.490;9.222;2023-04-25T11:55:58;8.80;18.70
6486;DHT22;3276;48.490;9.222;2023-04-25T11:58:25;8.50;19.30
6486;DHT22;3276;48.490;9.222;2023-04-25T12:00:51;8.50;19.50
6486;DHT22;3276;48.490;9.222;2023-04-25T12:03:18;8.50;20.00
6486;DHT22;3276;48.490;9.222;2023-04-25T12:05:45;8.40;19.60
6486;DHT22;3276;48.490;9.222;2023-04-25T12:08:15;8.50;19.50
6486;DHT22;3276;48.490;9.222;2023-04-25T12:10:43;8.00;19.90
6486;DHT22;3276;48.490;9.222;2023-04-25T12:13:25;8.30;21.30
6486;DHT22;3276;48.490;9.222;2023-04-25T12:15:51;8.40;20.80
6486;DHT22;3276;48.490;9.222;2023-04-25T12:18:24;8.50;18.60
6486;DHT22;3276;48.490;9.222;2023-04-25T12:20:52;8.70;19.70
6486;DHT22;3276;48.490;9.222;2023-04-25T12:23:26;9.30;17.60
6486;DHT22;3276;48.490;9.222;2023-04-25T12:25:52;9.90;15.10
6486;DHT22;3276;48.490;9.222;2023-04-25T12:31:02;9.10;17.10
6486;DHT22;3276;48.490;9.222;2023-04-25T12:33:35;9.50;17.70
6486;DHT22;3276;48.490;9.222;2023-04-25T12:36:03;9.40;17.00
6486;DHT22;3276;48.490;9.222;2023-04-25T12:38:43;9.70;17.50
6486;DHT22;3276;48.490;9.222;2023-04-25T12:41:08;9.50;16.30
6486;DHT22;3276;48.490;9.222;2023-04-25T12:43:34;9.30;17.80
6486;DHT22;3276;48.490;9.222;2023-04-25T12:46:00;9.20;17.90
6486;DHT22;3276;48.490;9.222;2023-04-25T12:48:26;9.30;18.60
6486;DHT22;3276;48.490;9.222;2023-04-25T12:50:51;9.50;17.40
6486;DHT22;3276;48.490;9.222;2023-04-25T12:53:18;9.60;16.90
6486;DHT22;3276;48.490;9.222;2023-04-25T12:55:44;9.50;17.40
6486;DHT22;3276;48.490;9.222;2023-04-25T12:58:12;9.70;18.90
6486;DHT22;3276;48.490;9.222;2023-04-25T13:00:38;9.80;17.50
6486;DHT22;3276;48.490;9.222;2023-04-25T13:03:04;10.10;17.00
6486;DHT22;3276;48.490;9.222;2023-04-25T13:05:30;10.30;15.10
6486;DHT22;3276;48.490;9.222;2023-04-25T13:07:56;10.20;15.10
6486;DHT22;3276;48.490;9.222;2023-04-25T13:10:21;10.00;15.60
6486;DHT22;3276;48.490;9.222;2023-04-25T13:12:47;10.20;15.00
6486;DHT22;3276;48.490;9.222;2023-04-25T13:15:12;10.50;14.40
6486;DHT22;3276;48.490;9.222;2023-04-25T13:17:41;10.70;14.50
6486;DHT22;3276;48.490;9.222;2023-04-25T13:20:07;10.80;14.10
6486;DHT22;3276;48.490;9.222;2023-04-25T13:22:40;10.90;13.20
6486;DHT22;3276;48.490;9.222;2023-04-25T13:25:07;10.80;13.20
6486;DHT22;3276;48.490;9.222;2023-04-25T13:27:34;10.70;14.10
6486;DHT22;3276;48.490;9.222;2023-04-25T13:30:01;11.00;14.00
6486;DHT22;3276;48.490;9.222;2023-04-25T13:32:30;11.60;13.20
6486;DHT22;3276;48.490;9.222;2023-04-25T13:34:55;11.60;12.30
6486;DHT22;3276;48.490;9.222;2023-04-25T13:37:21;11.70;12.20
6486;DHT22;3276;48.490;9.222;2023-04-25T13:39:49;11.80;12.50
6486;DHT22;3276;48.490;9.222;2023-04-25T13:42:15;11.70;12.00
6486;DHT22;3276;48.490;9.222;2023-04-25T13:44:41;11.80;11.90
6486;DHT22;3276;48.490;9.222;2023-04-25T13:47:06;11.80;10.90
6486;DHT22;3276;48.490;9.222;2023-04-25T13:49:32;11.60;10.80
6486;DHT22;3276;48.490;9.222;2023-04-25T13:51:57;11.60;11.50
6486;DHT22;3276;48.490;9.222;2023-04-25T13:54:23;11.80;10.90
6486;DHT22;3276;48.490;9.222;2023-04-25T13:56:49;12.00;11.10
6486;DHT22;3276;48.490;9.222;2023-04-25T13:59:15;12.20;11.20
6486;DHT22;3276;48.490;9.222;2023-04-25T14:01:41;12.30;10.20
6486;DHT22;3276;48.490;9.222;2023-04-25T14:04:06;11.80;11.30
6486;DHT22;3276;48.490;9.222;2023-04-25T14:06:32;11.50;11.90
6486;DHT22;3276;48.490;9.222;2023-04-25T14:08:58;11.30;10.60
6486;DHT22;3276;48.490;9.222;2023-04-25T14:11:26;11.50;11.40
6486;DHT22;3276;48.490;9.222;2023-04-25T14:13:51;11.50;12.70
6486;DHT22;3276;48.490;9.222;2023-04-25T14:16:17;11.80;13.80
6486;DHT22;3276;48.490;9.222;2023-04-25T14:18:42;12.20;10.60
6486;DHT22;3276;48.490;9.222;2023-04-25T14:21:08;12.70;10.80
6486;DHT22;3276;48.490;9.222;2023-04-25T14:23:35;13.10;9.20
6486;DHT22;3276;48.490;9.222;2023-04-25T14:26:00;13.30;8.50
6486;DHT22;3276;48.490;9.222;2023-04-25T14:28:26;13.30;7.50
6486;DHT22;3276;48.490;9.222;2023-04-25T14:30:51;13.10;7.30
6486;DHT22;3276;48.490;9.222;2023-04-25T14:33:17;12.50;8.60
6486;DHT22;3276;48.490;9.222;2023-04-25T14:35:42;12.50;7.50
6486;DHT22;3276;48.490;9.222;2023-04-25T14:38:08;12.50;6.90
6486;DHT22;3276;48.490;9.222;2023-04-25T14:40:34;12.40;8.10
6486;DHT22;3276;48.490;9.222;2023-04-25T14:42:59;12.50;8.70
6486;DHT22;3276;48.490;9.222;2023-04-25T14:45:25;12.30;7.80
6486;DHT22;3276;48.490;9.222;2023-04-25T14:47:51;12.50;7.80
6486;DHT22;3276;48.490;9.222;2023-04-25T14:50:17;12.90;7.40
6486;DHT22;3276;48.490;9.222;2023-04-25T14:52:42;13.00;7.30
6486;DHT22;3276;48.490;9.222;2023-04-25T14:55:09;13.00;7.20
6486;DHT22;3276;48.490;9.222;2023-04-25T14:57:35;13.10;7.30
6486;DHT22;3276;48.490;9.222;2023-04-25T15:00:01;13.10;6.60
6486;DHT22;3276;48.490;9.222;2023-04-25T15:02:27;13.10;7.40
6486;DHT22;3276;48.490;9.222;2023-04-25T15:04:53;12.60;7.00
6486;DHT22;3276;48.490;9.222;2023-04-25T15:07:20;12.90;6.40
6486;DHT22;3276;48.490;9.222;2023-04-25T15:09:47;13.00;5.80
6486;DHT22;3276;48.490;9.222;2023-04-25T15:12:13;13.20;6.40
6486;DHT22;3276;48.490;9.222;2023-04-25T15:14:39;13.10;6.60
6486;DHT22;3276;48.490;9.222;2023-04-25T15:19:31;12.50;7.40
6486;DHT22;3276;48.490;9.222;2023-04-25T15:21:56;12.20;10.50
6486;DHT22;3276;48.490;9.222;2023-04-25T15:24:25;11.80;8.90
6486;DHT22;3276;48.490;9.222;2023-04-25T15:26:51;11.60;9.80
6486;DHT22;3276;48.490;9.222;2023-04-25T15:29:17;11.60;9.10
6486;DHT22;3276;48.490;9.222;2023-04-25T15:31:42;11.90;8.80
6486;DHT22;3276;48.490;9.222;2023-04-25T15:36:34;11.60;9.60
6486;DHT22;3276;48.490;9.222;2023-04-25T15:38:59;11.70;10.50
6486;DHT22;3276;48.490;9.222;2023-04-25T15:41:25;11.90;8.90
6486;DHT22;3276;48.490;9.222;2023-04-25T15:43:52;12.20;9.20
6486;DHT22;3276;48.490;9.222;2023-04-25T15:46:18;12.40;9.60
6486;DHT22;3276;48.490;9.222;2023-04-25T15:48:44;12.50;9.10
6486;DHT22;3276;48.490;9.222;2023-04-25T15:51:10;12.50;6.60
6486;DHT22;3276;48.490;9.222;2023-04-25T15:53:35;12.40;6.90
6486;DHT22;3276;48.490;9.222;2023-04-25T15:56:01;12.20;6.70
6486;DHT22;3276;48.490;9.222;2023-04-25T15:58:28;12.30;7.20
6486;DHT22;3276;48.490;9.222;2023-04-25T16:00:54;11.80;8.00
6486;DHT22;3276;48.490;9.222;2023-04-25T16:03:21;11.60;9.50
6486;DHT22;3276;48.490;9.222;2023-04-25T16:05:46;11.50;9.00
6486;DHT22;3276;48.490;9.222;2023-04-25T16:08:12;11.50;7.00
6486;DHT22;3276;48.490;9.222;2023-04-25T16:15:29;11.40;7.30
6486;DHT22;3276;48.490;9.222;2023-04-25T16:17:56;11.40;9.50
6486;DHT22;3276;48.490;9.222;2023-04-25T16:20:22;11.60;9.90
6486;DHT22;3276;48.490;9.222;2023-04-25T16:22:47;11.90;8.80
6486;DHT22;3276;48.490;9.222;2023-04-25T16:25:13;12.00;7.60
6486;DHT22;3276;48.490;9.222;2023-04-25T16:27:39;11.90;6.80
6486;DHT22;3276;48.490;9.222;2023-04-25T16:30:08;11.90;7.60
6486;DHT22;3276;48.490;9.222;2023-04-25T16:32:34;11.80;6.60
6486;DHT22;3276;48.490;9.222;2023-04-25T16:35:00;11.70;7.60